createdAt,value
2022-10-05T00:01:26.296Z,5.30
2022-10-05T00:04:16.192Z,6.03
2022-10-05T00:06:45.512Z,5.57
2022-10-05T00:09:21.679Z,5.80
2022-10-05T00:11:49.942Z,5.13
2022-10-05T00:14:21.262Z,5.18
2022-10-05T00:16:49.328Z,5.50
2022-10-05T00:19:31.063Z,5.28
2022-10-05T00:22:19.747Z,5.43
2022-10-05T00:24:48.864Z,5.05
2022-10-05T00:27:21.418Z,6.18
2022-10-05T00:29:50.482Z,5.43
2022-10-05T00:32:18.019Z,5.47
2022-10-05T00:34:46.002Z,5.30
2022-10-05T00:37:14.440Z,5.70
2022-10-05T00:39:42.366Z,5.43
2022-10-05T00:42:31.150Z,4.85
2022-10-05T00:45:10.708Z,5.43
2022-10-05T00:47:56.393Z,5.65
2022-10-05T00:50:45.878Z,5.93
2022-10-05T00:53:39.320Z,5.35
2022-10-05T00:56:41.492Z,5.40
2022-10-05T00:59:40.834Z,5.20
2022-10-05T01:02:36.737Z,4.90
2022-10-05T01:05:09.668Z,5.25
2022-10-05T01:08:00.540Z,5.38
2022-10-05T01:10:34.607Z,5.72
2022-10-05T01:13:16.047Z,5.55
2022-10-05T01:15:49.011Z,5.20
2022-10-05T01:18:29.794Z,5.65
2022-10-05T01:21:14.796Z,5.47
2022-10-05T01:24:02.410Z,5.10
2022-10-05T01:27:11.661Z,4.90
2022-10-05T01:29:47.752Z,5.40
2022-10-05T01:32:23.892Z,5.43
2022-10-05T01:35:16.920Z,5.15
2022-10-05T01:37:58.900Z,6.57
2022-10-05T01:40:35.424Z,4.90
2022-10-05T01:43:36.376Z,5.47
2022-10-05T01:46:25.110Z,5.22
2022-10-05T01:48:54.849Z,5.38
2022-10-05T01:51:38.045Z,5.53
2022-10-05T01:54:38.348Z,5.40
2022-10-05T01:57:18.218Z,5.55
2022-10-05T02:00:07.702Z,5.60
2022-10-05T02:02:39.662Z,6.30
2022-10-05T02:05:23.431Z,6.05
2022-10-05T02:08:00.166Z,6.50
2022-10-05T02:10:46.400Z,6.13
2022-10-05T02:13:18.684Z,5.25
2022-10-05T02:15:53.609Z,6.35
2022-10-05T02:18:24.315Z,5.85
2022-10-05T02:20:55.277Z,5.72
2022-10-05T02:23:26.454Z,6.00
2022-10-05T02:25:54.697Z,5.57
2022-10-05T02:28:33.352Z,5.55
2022-10-05T02:31:14.196Z,5.57
2022-10-05T02:33:41.232Z,6.85
2022-10-05T02:36:20.980Z,6.20
2022-10-05T02:39:24.571Z,5.70
2022-10-05T02:42:02.267Z,6.28
2022-10-05T02:45:16.318Z,6.07
2022-10-05T02:48:12.346Z,5.63
2022-10-05T02:50:44.745Z,5.80
2022-10-05T02:53:35.509Z,6.07
2022-10-05T02:56:37.085Z,6.43
2022-10-05T02:59:23.365Z,6.00
2022-10-05T03:02:15.581Z,6.22
2022-10-05T03:04:51.336Z,6.20
2022-10-05T03:07:31.256Z,6.30
2022-10-05T03:10:12.205Z,7.78
2022-10-05T03:13:01.578Z,6.63
2022-10-05T03:15:55.240Z,6.10
2022-10-05T03:18:56.017Z,6.60
2022-10-05T03:21:44.298Z,6.18
2022-10-05T03:24:31.227Z,7.38
2022-10-05T03:27:35.964Z,7.88
2022-10-05T03:30:26.637Z,8.23
2022-10-05T03:33:05.757Z,8.90
2022-10-05T03:35:44.797Z,8.82
2022-10-05T03:38:52.432Z,8.23
2022-10-05T03:41:41.455Z,8.20
2022-10-05T03:44:11.268Z,8.00
2022-10-05T03:46:57.051Z,8.25
2022-10-05T03:49:51.874Z,8.65
2022-10-05T03:52:33.896Z,7.85
2022-10-05T03:55:23.558Z,8.07
2022-10-05T03:57:54.623Z,7.85
2022-10-05T04:00:23.703Z,7.78
2022-10-05T04:03:00.665Z,7.18
2022-10-05T04:05:35.801Z,7.85
2022-10-05T04:08:28.514Z,7.70
2022-10-05T04:10:59.616Z,7.93
2022-10-05T04:13:36.731Z,7.43
2022-10-05T04:16:07.307Z,7.95
2022-10-05T04:18:51.527Z,7.72
2022-10-05T04:21:24.016Z,7.75
2022-10-05T04:24:14.408Z,7.85
2022-10-05T04:26:46.176Z,7.03
2022-10-05T04:29:31.787Z,6.60
2022-10-05T04:32:07.584Z,7.05
2022-10-05T04:35:10.404Z,6.82
2022-10-05T04:38:00.636Z,7.57
2022-10-05T04:40:54.958Z,6.85
2022-10-05T04:43:34.323Z,7.40
2022-10-05T04:46:29.483Z,7.28
2022-10-05T04:52:01.444Z,5.93
2022-10-05T04:54:46.977Z,6.93
2022-10-05T04:57:40.168Z,6.25
2022-10-05T05:00:43.269Z,6.20
2022-10-05T05:03:34.879Z,5.70
2022-10-05T05:06:18.026Z,7.70
2022-10-05T05:08:51.129Z,5.85
2022-10-05T05:11:58.959Z,5.82
2022-10-05T05:14:31.643Z,5.72
2022-10-05T05:17:12.215Z,6.13
2022-10-05T05:19:58.963Z,5.97
2022-10-05T05:23:19.243Z,5.32
2022-10-05T05:26:04.594Z,5.90
2022-10-05T05:28:43.768Z,4.90
2022-10-05T05:31:19.687Z,5.22
2022-10-05T05:34:01.347Z,5.22
2022-10-05T05:37:12.378Z,5.30
2022-10-05T05:39:48.709Z,4.95
2022-10-05T05:42:30.658Z,5.80
2022-10-05T05:45:06.167Z,4.40
2022-10-05T05:47:43.773Z,4.38
2022-10-05T05:50:33.983Z,6.00
2022-10-05T05:53:21.410Z,4.90
2022-10-05T05:56:00.766Z,5.22
2022-10-05T05:58:40.093Z,4.68
2022-10-05T06:01:32.782Z,4.70
2022-10-05T06:04:45.219Z,4.82
2022-10-05T06:07:18.189Z,5.03
2022-10-05T06:09:58.711Z,5.07
2022-10-05T06:12:38.725Z,5.53
2022-10-05T06:15:14.373Z,4.88
2022-10-05T06:17:47.268Z,5.05
2022-10-05T06:20:30.173Z,5.00
2022-10-05T06:23:02.830Z,5.30
2022-10-05T06:26:26.341Z,5.05
2022-10-05T06:29:00.774Z,4.68
2022-10-05T06:35:03.881Z,5.05
2022-10-05T06:37:54.919Z,5.20
2022-10-05T06:40:30.344Z,5.13
2022-10-05T06:43:35.898Z,4.18
2022-10-05T06:46:25.034Z,5.15
2022-10-05T06:49:15.641Z,4.80
2022-10-05T06:51:48.324Z,4.68
2022-10-05T06:54:23.980Z,4.75
2022-10-05T06:57:00.479Z,5.50
2022-10-05T06:59:36.380Z,4.90
2022-10-05T07:02:18.225Z,4.88
2022-10-05T07:05:19.826Z,4.75
2022-10-05T07:07:59.998Z,4.82
2022-10-05T07:10:44.564Z,4.85
2022-10-05T07:13:26.948Z,5.00
2022-10-05T07:15:59.712Z,4.55
2022-10-05T07:18:40.965Z,4.55
2022-10-05T07:21:20.528Z,4.43
2022-10-05T07:24:04.542Z,4.40
2022-10-05T07:26:40.708Z,4.60
2022-10-05T07:29:07.576Z,5.28
2022-10-05T07:31:59.255Z,5.00
2022-10-05T07:34:31.698Z,5.55
2022-10-05T07:37:35.767Z,4.78
2022-10-05T07:40:10.680Z,4.60
2022-10-05T07:43:19.332Z,4.03
2022-10-05T07:46:02.866Z,3.92
2022-10-05T07:48:55.204Z,4.72
2022-10-05T07:51:34.224Z,4.57
2022-10-05T07:54:25.376Z,4.78
2022-10-05T07:56:59.124Z,4.53
2022-10-05T07:59:50.238Z,4.78
2022-10-05T08:02:49.441Z,4.40
2022-10-05T08:05:23.364Z,4.43
2022-10-05T08:07:55.487Z,4.05
2022-10-05T08:10:41.942Z,6.80
2022-10-05T08:13:20.508Z,6.05
2022-10-05T08:15:53.958Z,5.85
2022-10-05T08:19:08.885Z,7.50
2022-10-05T08:21:58.820Z,5.75
2022-10-05T08:24:49.296Z,4.25
2022-10-05T08:27:33.858Z,4.63
2022-10-05T08:32:42.189Z,4.50
2022-10-05T08:35:12.126Z,4.93
2022-10-05T08:37:42.443Z,4.80
2022-10-05T08:40:33.819Z,4.60
2022-10-05T08:43:11.252Z,4.32
2022-10-05T08:46:05.446Z,4.40
2022-10-05T08:48:44.348Z,4.65
2022-10-05T08:51:37.594Z,4.82
2022-10-05T08:54:34.013Z,4.75
2022-10-05T08:57:46.761Z,5.95
2022-10-05T09:00:51.975Z,4.65
2022-10-05T09:06:30.048Z,4.63
2022-10-05T09:09:04.710Z,4.63
2022-10-05T09:12:06.316Z,4.72
2022-10-05T09:15:13.400Z,4.40
2022-10-05T09:18:24.303Z,5.10
2022-10-05T09:20:55.248Z,4.65
2022-10-05T09:23:44.529Z,4.50
2022-10-05T09:26:41.558Z,4.30
2022-10-05T09:29:48.715Z,4.82
2022-10-05T09:32:40.229Z,3.92
2022-10-05T09:35:10.091Z,4.95
2022-10-05T09:38:00.237Z,4.10
2022-10-05T09:40:44.649Z,5.15
2022-10-05T09:43:21.406Z,5.05
2022-10-05T09:46:32.455Z,5.07
2022-10-05T09:49:31.112Z,4.85
2022-10-05T09:52:22.897Z,4.50
2022-10-05T09:55:19.561Z,4.35
2022-10-05T09:57:53.248Z,4.78
2022-10-05T10:00:24.007Z,4.25
2022-10-05T10:03:05.523Z,4.45
2022-10-05T10:06:11.169Z,4.65
2022-10-05T10:08:56.480Z,4.40
2022-10-05T10:11:54.271Z,3.90
2022-10-05T10:14:27.070Z,3.97
2022-10-05T10:17:10.929Z,4.63
2022-10-05T10:20:15.207Z,4.10
2022-10-05T10:22:57.525Z,4.27
2022-10-05T10:25:45.264Z,4.80
2022-10-05T10:28:35.819Z,3.90
2022-10-05T10:31:20.937Z,4.00
2022-10-05T10:34:18.801Z,4.30
2022-10-05T10:36:59.496Z,4.18
2022-10-05T10:39:29.386Z,3.92
2022-10-05T10:42:08.516Z,4.50
2022-10-05T10:44:38.230Z,4.28
2022-10-05T10:47:22.642Z,4.40
2022-10-05T10:50:11.046Z,4.53
2022-10-05T10:53:04.679Z,4.10
2022-10-05T10:56:09.046Z,4.43
2022-10-05T10:59:10.787Z,4.40
2022-10-05T11:02:12.956Z,4.28
2022-10-05T11:05:13.514Z,4.88
2022-10-05T11:07:49.675Z,4.78
2022-10-05T11:10:41.702Z,4.13
2022-10-05T11:13:55.785Z,4.72
2022-10-05T11:16:47.162Z,4.65
2022-10-05T11:20:07.067Z,5.03
2022-10-05T11:23:15.604Z,4.32
2022-10-05T11:26:16.500Z,5.07
2022-10-05T11:28:49.790Z,4.15
2022-10-05T11:31:44.478Z,4.20
2022-10-05T11:37:20.966Z,4.18
2022-10-05T11:44:01.074Z,3.50
2022-10-05T11:50:19.550Z,3.28
2022-10-05T11:53:21.847Z,3.60
2022-10-05T12:00:01.158Z,4.20
2022-10-05T12:02:52.972Z,4.70
2022-10-05T12:05:22.869Z,3.78
2022-10-05T12:08:04.841Z,4.45
2022-10-05T12:10:32.960Z,3.63
2022-10-05T12:16:59.198Z,3.92
2022-10-05T12:19:38.991Z,3.58
2022-10-05T12:22:18.290Z,4.10
2022-10-05T12:25:01.637Z,3.78
2022-10-05T12:27:48.664Z,3.85
2022-10-05T12:30:18.582Z,4.38
2022-10-05T12:33:18.812Z,3.85
2022-10-05T12:35:51.733Z,3.58
2022-10-05T12:38:34.965Z,3.75
2022-10-05T12:41:16.008Z,4.90
2022-10-05T12:43:43.296Z,4.55
2022-10-05T12:46:28.154Z,4.15
2022-10-05T12:49:09.631Z,3.60
2022-10-05T12:51:42.929Z,3.72
2022-10-05T12:54:13.094Z,4.20
2022-10-05T12:56:56.689Z,4.07
2022-10-05T12:59:38.827Z,3.97
2022-10-05T13:02:34.639Z,3.42
2022-10-05T13:05:26.584Z,4.40
2022-10-05T13:08:30.954Z,4.32
2022-10-05T13:11:42.848Z,3.90
2022-10-05T13:14:46.781Z,4.05
2022-10-05T13:17:23.890Z,4.28
2022-10-05T13:19:59.368Z,3.78
2022-10-05T13:22:42.667Z,3.63
2022-10-05T13:25:35.860Z,4.30
2022-10-05T13:28:10.718Z,3.83
2022-10-05T13:30:41.118Z,6.13
2022-10-05T13:33:18.706Z,3.97
2022-10-05T13:35:54.715Z,4.10
2022-10-05T13:38:55.108Z,4.13
2022-10-05T13:41:49.725Z,4.78
2022-10-05T13:45:08.839Z,3.72
2022-10-05T13:48:10.981Z,3.55
2022-10-05T13:51:06.530Z,4.30
2022-10-05T13:53:50.060Z,3.88
2022-10-05T13:56:48.645Z,4.03
2022-10-05T13:59:22.132Z,3.60
2022-10-05T14:02:08.029Z,3.75
2022-10-05T14:04:47.083Z,4.45
2022-10-05T14:07:48.007Z,3.85
2022-10-05T14:10:28.151Z,4.00
2022-10-05T14:12:55.605Z,3.60
2022-10-05T14:15:29.435Z,3.95
2022-10-05T14:17:56.726Z,4.15
2022-10-05T14:20:31.484Z,3.67
2022-10-05T14:23:01.988Z,4.13
2022-10-05T14:25:30.626Z,3.95
2022-10-05T14:28:06.396Z,4.03
2022-10-05T14:30:33.712Z,3.80
2022-10-05T14:33:17.245Z,4.05
2022-10-05T14:35:49.161Z,3.72
2022-10-05T14:38:40.405Z,4.53
2022-10-05T14:41:18.234Z,4.13
2022-10-05T14:44:02.114Z,3.40
2022-10-05T14:46:32.784Z,3.47
2022-10-05T14:49:14.059Z,4.10
2022-10-05T14:51:42.845Z,4.35
2022-10-05T14:54:47.426Z,4.57
2022-10-05T14:57:39.314Z,4.45
2022-10-05T15:00:19.227Z,4.05
2022-10-05T15:02:48.798Z,4.43
2022-10-05T15:05:24.895Z,3.88
2022-10-05T15:07:57.488Z,4.28
2022-10-05T15:10:51.202Z,5.05
2022-10-05T15:13:21.338Z,4.47
2022-10-05T15:15:51.254Z,3.97
2022-10-05T15:18:39.702Z,4.22
2022-10-05T15:21:23.832Z,4.07
2022-10-05T15:24:01.629Z,4.43
2022-10-05T15:26:56.913Z,5.85
2022-10-05T15:29:32.680Z,4.85
2022-10-05T15:32:17.699Z,5.38
2022-10-05T15:34:56.639Z,5.00
2022-10-05T15:37:33.147Z,5.25
2022-10-05T15:40:07.318Z,5.25
2022-10-05T15:42:41.637Z,7.38
2022-10-05T15:48:05.577Z,5.07
2022-10-05T15:50:46.020Z,5.20
2022-10-05T15:53:21.173Z,5.47
2022-10-05T15:56:09.896Z,5.30
2022-10-05T15:58:51.778Z,5.78
2022-10-05T16:01:33.836Z,6.80
2022-10-05T16:04:03.837Z,5.90
2022-10-05T16:07:04.332Z,6.50
2022-10-05T16:09:52.169Z,6.25
2022-10-05T16:12:57.923Z,6.30
2022-10-05T16:15:48.707Z,6.70
2022-10-05T16:19:01.138Z,6.18
2022-10-05T16:21:51.621Z,6.07
2022-10-05T16:24:47.396Z,7.30
2022-10-05T16:27:24.903Z,6.90
2022-10-05T16:30:05.357Z,6.60
2022-10-05T16:32:50.103Z,6.97
2022-10-05T16:38:22.738Z,7.50
2022-10-05T16:41:08.053Z,7.28
2022-10-05T16:43:44.994Z,7.38
2022-10-05T16:46:12.444Z,6.97
2022-10-05T16:48:55.490Z,7.93
2022-10-05T16:51:53.185Z,7.88
2022-10-05T16:54:43.124Z,7.40
2022-10-05T16:57:17.875Z,7.18
2022-10-05T17:00:22.146Z,8.45
2022-10-05T17:03:13.658Z,7.35
2022-10-05T17:05:44.353Z,7.93
2022-10-05T17:08:36.808Z,7.70
2022-10-05T17:11:18.678Z,8.05
2022-10-05T17:14:07.735Z,8.10
2022-10-05T17:16:46.519Z,8.50
2022-10-05T17:19:21.213Z,8.50
2022-10-05T17:22:19.406Z,8.50
2022-10-05T17:25:10.384Z,7.78
2022-10-05T17:27:57.572Z,9.43
2022-10-05T17:30:27.476Z,8.63
2022-10-05T17:33:04.694Z,9.30
2022-10-05T17:35:53.741Z,9.32
2022-10-05T17:38:46.708Z,9.82
2022-10-05T17:41:30.272Z,9.35
2022-10-05T17:44:13.602Z,9.43
2022-10-05T17:46:46.746Z,10.88
2022-10-05T17:49:46.924Z,9.85
2022-10-05T17:52:43.392Z,10.65
2022-10-05T17:55:38.393Z,10.38
2022-10-05T17:58:55.622Z,10.70
2022-10-05T18:01:39.036Z,10.27
2022-10-05T18:04:12.166Z,10.88
2022-10-05T18:06:59.671Z,10.90
2022-10-05T18:09:27.770Z,10.43
2022-10-05T18:12:10.067Z,10.85
2022-10-05T18:14:55.756Z,10.10
2022-10-05T18:17:51.294Z,11.38
2022-10-05T18:20:31.717Z,10.55
2022-10-05T18:23:07.741Z,11.05
2022-10-05T18:25:47.085Z,10.70
2022-10-05T18:28:26.282Z,11.27
2022-10-05T18:31:02.585Z,10.65
2022-10-05T18:33:51.213Z,10.07
2022-10-05T18:36:27.969Z,10.73
2022-10-05T18:39:20.945Z,10.25
2022-10-05T18:42:13.894Z,10.70
2022-10-05T18:44:49.727Z,13.00
2022-10-05T18:47:44.301Z,13.23
2022-10-05T18:50:40.131Z,11.73
2022-10-05T18:53:06.963Z,10.82
2022-10-05T18:55:41.897Z,14.23
2022-10-05T18:58:14.619Z,15.27
2022-10-05T19:00:51.492Z,16.45
2022-10-05T19:03:27.003Z,14.75
2022-10-05T19:05:53.887Z,15.27
2022-10-05T19:09:02.164Z,15.23
2022-10-05T19:11:29.989Z,14.73
2022-10-05T19:14:27.841Z,14.98
2022-10-05T19:17:29.654Z,14.43
2022-10-05T19:20:18.348Z,14.25
2022-10-05T19:23:17.529Z,13.82
2022-10-05T19:26:11.948Z,13.60
2022-10-05T19:29:02.415Z,15.60
2022-10-05T19:31:38.049Z,13.75
2022-10-05T19:34:25.711Z,13.23
2022-10-05T19:37:03.879Z,15.63
2022-10-05T19:39:45.797Z,14.70
2022-10-05T19:42:21.679Z,15.40
2022-10-05T19:45:10.290Z,15.73
2022-10-05T19:47:55.246Z,15.60
2022-10-05T19:50:28.294Z,14.48
2022-10-05T19:53:17.232Z,15.40
2022-10-05T19:55:47.242Z,15.68
2022-10-05T19:58:26.333Z,16.13
2022-10-05T20:01:02.178Z,15.50
2022-10-05T20:03:31.901Z,15.38
2022-10-05T20:06:01.338Z,15.55
2022-10-05T20:08:40.171Z,15.82
2022-10-05T20:11:17.610Z,16.35
2022-10-05T20:14:06.248Z,16.65
2022-10-05T20:16:53.112Z,15.70
2022-10-05T20:19:50.519Z,16.92
2022-10-05T20:22:29.386Z,15.77
2022-10-05T20:25:00.185Z,16.65
2022-10-05T20:27:36.217Z,16.50
2022-10-05T20:30:04.615Z,17.52
2022-10-05T20:32:31.888Z,16.60
2022-10-05T20:34:58.828Z,18.90
2022-10-05T20:37:25.882Z,17.02
2022-10-05T20:39:52.860Z,17.23
2022-10-05T20:42:21.136Z,17.23
2022-10-05T20:44:52.916Z,18.17
2022-10-05T20:47:23.236Z,16.85
2022-10-05T20:49:50.271Z,17.90
2022-10-05T20:52:17.149Z,16.88
2022-10-05T20:57:15.952Z,16.98
2022-10-05T20:59:42.809Z,15.88
2022-10-05T21:02:10.607Z,16.48
2022-10-05T21:04:41.782Z,17.25
2022-10-05T21:07:09.595Z,16.77
2022-10-05T21:09:38.556Z,16.13
2022-10-05T21:12:05.586Z,17.70
2022-10-05T21:18:12.705Z,17.00
2022-10-05T21:20:39.599Z,17.02
2022-10-05T21:23:06.490Z,15.57
2022-10-05T21:25:33.861Z,16.08
2022-10-05T21:28:00.829Z,17.55
2022-10-05T21:30:27.810Z,17.13
2022-10-05T21:35:26.485Z,17.50
2022-10-05T21:41:40.935Z,16.63
2022-10-05T21:47:48.806Z,16.70
2022-10-05T21:50:15.836Z,16.38
2022-10-05T21:52:43.230Z,16.92
2022-10-05T21:55:11.228Z,17.65
2022-10-05T21:57:38.713Z,17.33
2022-10-05T22:00:08.391Z,18.88
2022-10-05T22:02:35.406Z,16.95
2022-10-05T22:05:02.507Z,18.02
2022-10-05T22:07:48.289Z,18.00
2022-10-05T22:10:15.196Z,18.70
2022-10-05T22:12:42.779Z,19.30
2022-10-05T22:15:10.112Z,18.95
2022-10-05T22:17:37.109Z,18.00
2022-10-05T22:20:04.500Z,18.55
2022-10-05T22:22:31.454Z,18.13
2022-10-05T22:24:58.517Z,19.15
2022-10-05T22:27:27.761Z,17.95
2022-10-05T22:29:56.052Z,18.27
2022-10-05T22:32:22.920Z,18.25
2022-10-05T22:34:50.019Z,17.98
2022-10-05T22:37:17.064Z,18.25
2022-10-05T22:39:44.119Z,17.15
2022-10-05T22:42:11.093Z,18.95
2022-10-05T22:44:39.107Z,18.08
2022-10-05T22:47:06.044Z,19.90
2022-10-05T22:49:32.926Z,19.25
2022-10-05T22:51:59.824Z,18.02
2022-10-05T22:54:29.714Z,18.15
2022-10-05T22:56:57.995Z,18.70
2022-10-05T22:59:24.859Z,18.35
2022-10-05T23:01:51.894Z,18.48
2022-10-05T23:04:18.921Z,18.95
2022-10-05T23:06:45.790Z,19.25
2022-10-05T23:09:12.720Z,18.42
2022-10-05T23:11:40.711Z,19.33
2022-10-05T23:14:07.615Z,18.58
2022-10-05T23:16:34.581Z,17.88
2022-10-05T23:19:01.578Z,19.50
2022-10-05T23:21:30.343Z,18.73
2022-10-05T23:23:57.743Z,20.23
2022-10-05T23:26:26.487Z,19.30
2022-10-05T23:28:53.897Z,19.67
2022-10-05T23:31:26.516Z,20.55
2022-10-05T23:33:53.917Z,21.33
2022-10-05T23:36:26.433Z,20.83
2022-10-05T23:38:54.086Z,18.73
2022-10-05T23:41:21.356Z,19.45
2022-10-05T23:43:48.424Z,20.75
2022-10-05T23:46:16.251Z,21.73
2022-10-05T23:48:43.247Z,21.73
2022-10-05T23:51:12.551Z,20.90
2022-10-05T23:53:39.461Z,21.05
2022-10-05T23:56:06.619Z,21.45
2022-10-05T23:58:33.554Z,22.08
